createdAt,value
2023-03-29T00:00:25.930Z,91
2023-03-29T00:05:25.922Z,89
2023-03-29T00:10:25.922Z,89
2023-03-29T00:15:25.875Z,89
2023-03-29T00:20:25.857Z,88.5
2023-03-29T00:25:25.843Z,89
2023-03-29T00:30:25.827Z,90.5
2023-03-29T00:35:25.795Z,91
2023-03-29T00:40:25.876Z,90.5
2023-03-29T00:45:25.757Z,90.5
2023-03-29T00:50:25.759Z,89
2023-03-29T00:55:25.736Z,91
2023-03-29T01:00:25.704Z,96
2023-03-29T01:05:25.687Z,96
2023-03-29T01:10:25.667Z,95
2023-03-29T01:15:25.651Z,95
2023-03-29T01:20:25.640Z,91
2023-03-29T01:25:25.610Z,89.5
2023-03-29T01:30:25.597Z,86.5
2023-03-29T01:35:25.572Z,84
2023-03-29T01:40:25.558Z,84.5
2023-03-29T01:45:25.542Z,84
2023-03-29T01:50:25.519Z,84.5
2023-03-29T01:55:25.499Z,85
2023-03-29T02:00:25.479Z,86
2023-03-29T02:05:25.459Z,87
2023-03-29T02:10:25.431Z,90
2023-03-29T02:15:25.418Z,92
2023-03-29T02:20:25.431Z,94
2023-03-29T02:25:25.383Z,96.5
2023-03-29T02:30:25.374Z,99
2023-03-29T02:35:25.344Z,99.5
2023-03-29T02:40:25.323Z,98.5
2023-03-29T02:45:25.299Z,99
2023-03-29T02:50:25.295Z,99
2023-03-29T02:55:25.268Z,98.5
2023-03-29T03:00:25.249Z,98
2023-03-29T03:05:25.240Z,95.5
2023-03-29T03:10:25.213Z,94.5
2023-03-29T03:15:25.185Z,94.5
2023-03-29T03:20:25.168Z,96.5
2023-03-29T03:25:25.145Z,97
2023-03-29T03:30:25.130Z,97
2023-03-29T03:35:25.108Z,98
2023-03-29T03:40:25.101Z,96
2023-03-29T03:45:25.064Z,96
2023-03-29T03:50:25.060Z,94.5
2023-03-29T03:55:25.037Z,94
2023-03-29T04:00:25.006Z,94.5
2023-03-29T04:05:24.985Z,96.5
2023-03-29T04:10:24.967Z,95.5
2023-03-29T04:15:24.958Z,95.5
2023-03-29T04:20:24.934Z,96
2023-03-29T04:25:24.923Z,98
2023-03-29T04:30:24.897Z,99.5
2023-03-29T04:35:24.885Z,100
2023-03-29T04:40:24.856Z,100
2023-03-29T04:45:24.918Z,100
2023-03-29T04:50:24.822Z,100
2023-03-29T04:55:24.808Z,100
2023-03-29T05:00:24.789Z,100
2023-03-29T05:05:24.805Z,100
2023-03-29T05:10:24.740Z,100
2023-03-29T05:15:24.733Z,100
2023-03-29T05:20:24.715Z,100
2023-03-29T05:25:24.683Z,100
2023-03-29T05:30:24.672Z,100
2023-03-29T05:35:24.650Z,100
2023-03-29T05:40:24.640Z,0.5
2023-03-29T05:45:24.600Z,1.5
2023-03-29T05:50:24.585Z,1
2023-03-29T05:55:24.574Z,0.5
2023-03-29T06:00:24.564Z,0.5
2023-03-29T06:05:24.530Z,1
2023-03-29T06:10:24.550Z,2.5
2023-03-29T06:15:24.486Z,3
2023-03-29T06:20:24.494Z,2.5
2023-03-29T06:25:24.463Z,1.5
2023-03-29T06:30:24.441Z,2
2023-03-29T06:35:24.418Z,3
2023-03-29T06:40:24.407Z,3
2023-03-29T06:45:24.382Z,2
2023-03-29T06:50:24.350Z,3.5
2023-03-29T06:55:24.339Z,2
2023-03-29T07:00:24.320Z,2
2023-03-29T07:05:24.309Z,1
2023-03-29T07:10:24.286Z,1
2023-03-29T07:15:24.331Z,1
2023-03-29T07:20:24.262Z,1
2023-03-29T07:25:24.226Z,1
2023-03-29T07:30:24.204Z,2.5
2023-03-29T07:35:24.180Z,0
2023-03-29T07:40:24.181Z,0
2023-03-29T07:45:24.165Z,0
2023-03-29T07:50:24.138Z,0
2023-03-29T07:55:24.103Z,0
2023-03-29T08:00:24.088Z,0
2023-03-29T08:05:24.065Z,0
2023-03-29T08:10:24.050Z,0
2023-03-29T08:15:24.024Z,0
2023-03-29T08:20:24.011Z,0
2023-03-29T08:25:23.986Z,96
2023-03-29T08:30:23.956Z,96
2023-03-29T08:35:23.946Z,96.5
2023-03-29T08:40:23.936Z,95.5
2023-03-29T08:45:23.908Z,90.5
2023-03-29T08:50:23.901Z,84
2023-03-29T08:55:23.873Z,83
2023-03-29T09:00:23.841Z,81
2023-03-29T09:05:23.829Z,81.5
2023-03-29T09:10:23.804Z,81
2023-03-29T09:15:23.787Z,83
2023-03-29T09:20:23.767Z,77
2023-03-29T09:25:23.745Z,77
2023-03-29T09:30:23.722Z,76.5
2023-03-29T09:35:23.699Z,79.5
2023-03-29T09:40:23.682Z,73.5
2023-03-29T09:45:23.658Z,70.5
2023-03-29T09:50:23.630Z,71
2023-03-29T09:55:23.632Z,71.5
2023-03-29T10:00:23.601Z,69
2023-03-29T10:05:23.634Z,68
2023-03-29T10:10:23.559Z,69
2023-03-29T10:15:23.536Z,69
2023-03-29T10:20:23.513Z,68.5
2023-03-29T10:25:23.504Z,64.5
2023-03-29T10:30:23.480Z,66
2023-03-29T10:35:23.460Z,63.5
2023-03-29T10:45:23.423Z,63
2023-03-29T10:50:23.398Z,63.5
2023-03-29T10:55:23.384Z,64
2023-03-29T11:00:23.380Z,64
2023-03-29T11:05:23.331Z,64
2023-03-29T11:10:23.329Z,63.5
2023-03-29T11:15:23.302Z,62.5
2023-03-29T11:20:23.267Z,61
2023-03-29T11:25:23.243Z,61.5
2023-03-29T11:30:23.235Z,58
2023-03-29T11:35:23.197Z,61.5
2023-03-29T11:40:23.183Z,59.5
2023-03-29T11:45:23.164Z,59
2023-03-29T11:50:23.138Z,59.5
2023-03-29T11:55:23.124Z,60
2023-03-29T12:00:23.106Z,58
2023-03-29T12:05:23.079Z,60.5
2023-03-29T12:10:23.064Z,59
2023-03-29T12:15:23.036Z,57
2023-03-29T12:20:23.019Z,58.5
2023-03-29T12:25:23.002Z,57
2023-03-29T12:30:23.028Z,56
2023-03-29T12:35:22.961Z,55.5
2023-03-29T12:40:22.938Z,53
2023-03-29T12:45:22.920Z,53.5
2023-03-29T12:50:22.894Z,54
2023-03-29T12:55:22.878Z,54
2023-03-29T13:00:22.853Z,52
2023-03-29T13:05:22.844Z,54
2023-03-29T13:10:22.808Z,53.5
2023-03-29T13:15:22.784Z,51.5
2023-03-29T13:20:22.771Z,52.5
2023-03-29T13:25:22.738Z,52.5
2023-03-29T13:30:22.730Z,52
2023-03-29T13:35:22.706Z,51.5
2023-03-29T13:40:22.691Z,51.5
2023-03-29T13:45:22.661Z,51
2023-03-29T13:50:22.635Z,49
2023-03-29T13:55:22.611Z,48.5
2023-03-29T14:00:22.597Z,50.5
2023-03-29T14:05:22.571Z,50.5
2023-03-29T14:10:22.549Z,50.5
2023-03-29T14:15:22.533Z,49.5
2023-03-29T14:20:22.509Z,51
2023-03-29T14:25:22.518Z,50.5
2023-03-29T14:30:22.480Z,51
2023-03-29T14:35:22.430Z,50.5
2023-03-29T14:40:22.427Z,51.5
2023-03-29T14:45:22.405Z,51
2023-03-29T14:50:22.380Z,51
2023-03-29T14:55:22.363Z,51
2023-03-29T15:00:22.357Z,49.5
2023-03-29T15:05:22.324Z,49
2023-03-29T15:10:22.322Z,50.5
2023-03-29T15:15:22.268Z,52
2023-03-29T15:20:22.256Z,52
2023-03-29T15:25:22.231Z,52
2023-03-29T15:30:22.211Z,54
2023-03-29T15:35:22.192Z,53
2023-03-29T15:40:22.165Z,53.5
2023-03-29T15:45:22.153Z,54.5
2023-03-29T15:50:22.135Z,54.5
2023-03-29T15:55:22.119Z,55.5
2023-03-29T16:00:22.088Z,54
2023-03-29T16:05:22.065Z,54
2023-03-29T16:10:22.047Z,53.5
2023-03-29T16:15:22.037Z,54.5
2023-03-29T16:20:21.997Z,55
2023-03-29T16:25:21.981Z,54.5
2023-03-29T16:30:21.947Z,55.5
2023-03-29T16:35:21.936Z,58.5
2023-03-29T16:40:21.910Z,60.5
2023-03-29T16:45:21.893Z,61
2023-03-29T16:50:21.870Z,63
2023-03-29T16:55:21.842Z,57.5
2023-03-29T17:00:21.825Z,57
2023-03-29T17:05:21.809Z,58.5
2023-03-29T17:10:21.781Z,59
2023-03-29T17:15:21.765Z,59
2023-03-29T17:20:21.742Z,60
2023-03-29T17:25:21.719Z,61.5
2023-03-29T17:30:21.692Z,61
2023-03-29T17:35:21.683Z,62
2023-03-29T17:40:21.660Z,62
2023-03-29T17:45:21.638Z,61.5
2023-03-29T17:50:21.626Z,64.5
2023-03-29T17:55:21.592Z,63
2023-03-29T18:00:21.582Z,63
2023-03-29T18:05:21.569Z,63.5
2023-03-29T18:10:21.531Z,62.5
2023-03-29T18:15:21.518Z,61.5
2023-03-29T18:20:21.490Z,61.5
2023-03-29T18:25:21.479Z,62
2023-03-29T18:30:21.448Z,62
2023-03-29T18:35:21.426Z,62
2023-03-29T18:40:21.403Z,61
2023-03-29T18:45:21.393Z,60.5
2023-03-29T18:50:21.359Z,60
2023-03-29T18:55:21.349Z,59.5
2023-03-29T19:00:21.328Z,58
2023-03-29T19:05:21.306Z,58.5
2023-03-29T19:10:21.295Z,58.5
2023-03-29T19:15:21.271Z,59
2023-03-29T19:20:21.235Z,59.5
2023-03-29T19:25:21.224Z,58
2023-03-29T19:30:21.205Z,57.5
2023-03-29T19:35:21.220Z,58
2023-03-29T19:40:21.161Z,57
2023-03-29T19:45:21.186Z,56.5
2023-03-29T19:50:21.148Z,57
2023-03-29T19:55:21.126Z,56.5
2023-03-29T20:00:21.062Z,56
2023-03-29T20:05:21.049Z,56.5
2023-03-29T20:10:21.025Z,57
2023-03-29T20:15:21.013Z,57
2023-03-29T20:20:20.977Z,57.5
2023-03-29T20:25:20.963Z,58.5
2023-03-29T20:30:20.947Z,59.5
2023-03-29T20:35:20.925Z,59
2023-03-29T20:40:20.907Z,59
2023-03-29T20:45:20.927Z,59.5
2023-03-29T20:50:20.868Z,60
2023-03-29T20:55:20.861Z,60
2023-03-29T21:00:20.840Z,60.5
2023-03-29T21:05:20.791Z,60
2023-03-29T21:10:20.779Z,60.5
2023-03-29T21:15:20.755Z,60.5
2023-03-29T21:20:20.740Z,61
2023-03-29T21:25:20.716Z,61
2023-03-29T21:30:20.695Z,61.5
2023-03-29T21:35:20.663Z,62
2023-03-29T21:40:20.645Z,61.5
2023-03-29T21:45:20.624Z,62
2023-03-29T21:50:20.604Z,62.5
2023-03-29T21:55:20.589Z,62.5
2023-03-29T22:00:20.579Z,62.5
2023-03-29T22:05:20.552Z,62
2023-03-29T22:10:20.526Z,62.5
2023-03-29T22:15:20.516Z,63
2023-03-29T22:20:20.490Z,63
2023-03-29T22:25:20.467Z,63
2023-03-29T22:30:20.452Z,63
2023-03-29T22:35:20.425Z,63.5
2023-03-29T22:40:20.398Z,64
2023-03-29T22:45:20.374Z,65
2023-03-29T22:50:20.354Z,67.5
2023-03-29T22:55:20.344Z,68.5
2023-03-29T23:00:20.316Z,68.5
2023-03-29T23:05:20.302Z,69
2023-03-29T23:10:20.295Z,70.5
2023-03-29T23:15:20.257Z,69
2023-03-29T23:20:20.227Z,68
2023-03-29T23:25:20.207Z,68.5
2023-03-29T23:30:20.185Z,68.5
2023-03-29T23:35:20.169Z,68.5
2023-03-29T23:40:20.146Z,68
2023-03-29T23:45:20.119Z,68
2023-03-29T23:50:20.114Z,67.5
2023-03-29T23:55:20.090Z,67.5
